Leuchars, United Kingdom
Current Conditions -  °F | °C
As of 3:50 AM on Sunday 25 Jan 2015 (Local Time) from EGQL Reporting Station
Broken Clouds Broken Clouds  
Wind Chill: 32°   Ceiling: 10000
Heat Index: 41°   Visibility: 6mi
Dew Point: 37°   Wind: 17mph
Humidity: 87%   Direction: 260°W
Pressure: 30.15"   Gusts: NA
Location:  56.38°N, 2.89°W
Report Text: EGQL 250350Z 26015KT 9999 SCT022 BKN100 05/03 Q1021 WHT
Loading
Personal Weather Stations






























Interactive Weather Map New forecast layout! Learn more

10-Day Weather Forecast

Advertisements
Track Severe Weather on mobile